Terminal Aerodrome Forecast
Issued by NWS Los Angeles, CA

Home | Current Version | Previous Version | Text Only | Print | Product List | Glossary On
Versions: 1 2 3 4 5 6 7 8 9 10 11 12 13 14 15 16 17 18 19 20 21 22 23 24 25 26
012
FTUS46 KLOX 210254 AAA
TAFSMX
TAF AMD
KSMX 210254Z 2103/2124 30016KT P6SM FEW020 BKN200
     FM210600 30006KT P6SM BKN015
     FM211200 VRB03KT P6SM OVC015
     FM211800 30008KT P6SM BKN025
     FM212000 30015G21KT P6SM BKN250=

USA.gov is the U.S. government's official web portal to all federal, state and local government web resources and services.